createdAt,value
2022-12-01T00:01:23.551Z,12.00
2022-12-01T00:03:51.069Z,14.57
2022-12-01T00:06:20.548Z,10.30
2022-12-01T00:09:08.377Z,9.90
2022-12-01T00:11:37.040Z,8.30
2022-12-01T00:14:05.267Z,5.60
2022-12-01T00:16:33.002Z,9.02
2022-12-01T00:19:00.984Z,12.05
2022-12-01T00:21:28.532Z,8.57
2022-12-01T00:23:57.801Z,8.30
2022-12-01T00:26:27.547Z,11.95
2022-12-01T00:28:59.861Z,10.30
2022-12-01T00:31:28.072Z,16.00
2022-12-01T00:33:55.980Z,8.07
2022-12-01T00:36:24.080Z,7.18
2022-12-01T00:38:55.770Z,13.50
2022-12-01T00:41:25.281Z,6.82
2022-12-01T00:43:52.749Z,3.92
2022-12-01T00:46:20.514Z,7.20
2022-12-01T00:48:48.490Z,10.45
2022-12-01T00:51:18.930Z,8.07
2022-12-01T00:53:48.821Z,5.03
2022-12-01T00:56:17.447Z,8.88
2022-12-01T00:58:46.285Z,8.85
2022-12-01T01:01:14.021Z,6.15
2022-12-01T01:03:41.571Z,11.23
2022-12-01T01:06:13.270Z,7.95
2022-12-01T01:08:41.188Z,9.93
2022-12-01T01:11:09.102Z,9.77
2022-12-01T01:13:37.035Z,11.15
2022-12-01T01:16:05.358Z,9.77
2022-12-01T01:18:33.321Z,8.32
2022-12-01T01:21:06.612Z,7.78
2022-12-01T01:23:34.092Z,8.60
2022-12-01T01:26:10.008Z,7.93
2022-12-01T01:28:37.604Z,12.85
2022-12-01T01:31:06.826Z,12.55
2022-12-01T01:33:34.350Z,8.20
2022-12-01T01:36:02.421Z,12.30
2022-12-01T01:38:31.205Z,15.00
2022-12-01T01:40:58.326Z,13.50
2022-12-01T01:43:47.520Z,9.00
2022-12-01T01:46:16.316Z,10.18
2022-12-01T01:49:08.272Z,11.75
2022-12-01T01:51:46.388Z,7.45
2022-12-01T01:54:19.673Z,12.35
2022-12-01T01:56:49.527Z,9.07
2022-12-01T01:59:24.674Z,22.67
2022-12-01T02:02:00.621Z,8.35
2022-12-01T02:04:29.171Z,5.50
2022-12-01T02:06:56.246Z,6.82
2022-12-01T02:09:23.620Z,12.23
2022-12-01T02:12:11.593Z,5.50
2022-12-01T02:15:15.557Z,8.35
2022-12-01T02:18:20.205Z,13.15
2022-12-01T02:21:03.898Z,9.60
2022-12-01T02:23:33.852Z,5.78
2022-12-01T02:26:07.027Z,8.50
2022-12-01T02:28:55.648Z,5.50
2022-12-01T02:31:30.960Z,9.57
2022-12-01T02:34:10.589Z,11.30
2022-12-01T02:36:46.412Z,8.60
2022-12-01T02:39:27.556Z,13.65
2022-12-01T02:42:05.059Z,14.07
2022-12-01T02:44:42.889Z,12.63
2022-12-01T02:47:14.757Z,5.47
2022-12-01T02:49:48.185Z,15.38
2022-12-01T02:52:16.750Z,9.30
2022-12-01T02:54:45.432Z,8.80
2022-12-01T02:57:13.659Z,12.45
2022-12-01T02:59:43.607Z,7.20
2022-12-01T03:02:16.346Z,12.68
2022-12-01T03:05:10.198Z,10.95
2022-12-01T03:08:02.161Z,24.50
2022-12-01T03:10:45.270Z,11.75
2022-12-01T03:13:50.513Z,9.38
2022-12-01T03:16:57.301Z,14.18
2022-12-01T03:19:37.618Z,7.68
2022-12-01T03:22:14.228Z,11.10
2022-12-01T03:24:47.124Z,8.18
2022-12-01T03:27:18.792Z,10.63
2022-12-01T03:29:53.595Z,12.32
2022-12-01T03:32:52.205Z,9.48
2022-12-01T03:35:27.682Z,13.95
2022-12-01T03:38:00.150Z,9.98
2022-12-01T03:40:31.322Z,11.68
2022-12-01T03:43:10.557Z,12.23
2022-12-01T03:46:00.843Z,11.40
2022-12-01T03:48:29.973Z,13.63
2022-12-01T03:56:56.340Z,10.70
2022-12-01T03:59:27.011Z,11.65
2022-12-01T04:01:55.400Z,10.18
2022-12-01T04:04:22.434Z,11.77
2022-12-01T04:06:51.130Z,9.52
2022-12-01T04:09:18.231Z,9.23
2022-12-01T04:12:04.181Z,8.35
2022-12-01T04:14:31.300Z,10.27
2022-12-01T04:16:58.988Z,9.80
2022-12-01T04:19:26.189Z,8.10
2022-12-01T04:21:53.464Z,6.53
2022-12-01T04:24:20.698Z,16.42
2022-12-01T04:26:48.161Z,15.43
2022-12-01T04:29:15.227Z,14.15
2022-12-01T04:31:43.862Z,11.77
2022-12-01T04:34:11.370Z,11.80
2022-12-01T04:36:39.008Z,10.70
2022-12-01T04:39:06.009Z,9.20
2022-12-01T04:41:34.412Z,10.00
2022-12-01T04:44:01.453Z,8.23
2022-12-01T04:46:28.917Z,11.45
2022-12-01T04:48:57.089Z,9.55
2022-12-01T04:51:24.786Z,7.95
2022-12-01T04:53:52.580Z,8.88
2022-12-01T04:56:20.366Z,8.82
2022-12-01T04:58:48.986Z,9.32
2022-12-01T05:01:18.793Z,10.27
2022-12-01T05:03:49.884Z,10.90
2022-12-01T05:06:38.060Z,8.32
2022-12-01T05:09:05.971Z,9.18
2022-12-01T05:11:34.038Z,15.13
2022-12-01T05:14:01.615Z,9.82
2022-12-01T05:16:32.625Z,10.23
2022-12-01T05:22:12.752Z,6.93
2022-12-01T05:24:40.195Z,8.25
2022-12-01T05:29:37.055Z,10.18
2022-12-01T05:32:07.133Z,8.07
2022-12-01T05:34:34.043Z,11.27
2022-12-01T05:37:09.094Z,11.82
2022-12-01T05:39:49.577Z,11.75
2022-12-01T05:42:20.136Z,6.13
2022-12-01T05:44:50.036Z,7.80
2022-12-01T05:47:17.486Z,9.48
2022-12-01T05:49:49.536Z,11.10
2022-12-01T05:55:32.068Z,8.77
2022-12-01T06:01:11.036Z,15.63
2022-12-01T06:03:38.040Z,9.77
2022-12-01T06:06:21.540Z,9.15
2022-12-01T06:09:51.552Z,11.63
2022-12-01T06:12:37.859Z,11.18
2022-12-01T06:15:14.354Z,8.77
2022-12-01T06:17:42.802Z,6.70
2022-12-01T06:23:00.510Z,9.98
2022-12-01T06:25:30.574Z,8.45
2022-12-01T06:27:58.935Z,12.20
2022-12-01T06:30:26.713Z,12.02
2022-12-01T06:32:53.870Z,7.18
2022-12-01T06:35:21.601Z,12.40
2022-12-01T06:37:48.785Z,10.93
2022-12-01T06:40:16.567Z,7.35
2022-12-01T06:42:43.560Z,13.65
2022-12-01T06:45:11.428Z,9.05
2022-12-01T06:47:39.001Z,6.90
2022-12-01T06:50:08.939Z,13.68
2022-12-01T06:52:39.069Z,9.50
2022-12-01T06:55:22.054Z,12.57
2022-12-01T06:57:49.521Z,18.08
2022-12-01T07:00:17.594Z,9.20
2022-12-01T07:02:45.117Z,8.77
2022-12-01T07:05:12.467Z,21.88
2022-12-01T07:07:40.193Z,19.08
2022-12-01T07:10:12.569Z,15.15
2022-12-01T07:12:39.954Z,19.65
2022-12-01T07:15:09.462Z,16.42
2022-12-01T07:17:38.474Z,10.10
2022-12-01T07:22:39.748Z,12.15
2022-12-01T07:25:07.520Z,11.00
2022-12-01T07:32:52.497Z,14.60
2022-12-01T07:35:20.451Z,20.85
2022-12-01T07:37:47.615Z,14.45
2022-12-01T07:40:15.190Z,9.80
2022-12-01T07:42:42.528Z,10.38
2022-12-01T07:45:10.106Z,12.75
2022-12-01T07:47:37.399Z,15.70
2022-12-01T07:50:08.427Z,13.02
2022-12-01T07:52:35.998Z,14.40
2022-12-01T07:55:03.721Z,11.05
2022-12-01T08:00:15.747Z,18.10
2022-12-01T08:02:43.154Z,16.60
2022-12-01T08:05:11.031Z,23.08
2022-12-01T08:07:39.477Z,16.98
2022-12-01T08:10:21.600Z,12.98
2022-12-01T08:12:52.016Z,23.77
2022-12-01T08:15:21.622Z,11.77
2022-12-01T08:17:52.900Z,10.77
2022-12-01T08:20:23.996Z,16.08
2022-12-01T08:22:51.676Z,11.77
2022-12-01T08:25:19.876Z,16.40
2022-12-01T08:27:47.244Z,24.17
2022-12-01T08:30:16.839Z,17.02
2022-12-01T08:32:48.271Z,10.52
2022-12-01T08:35:15.504Z,11.25
2022-12-01T08:37:45.352Z,17.98
2022-12-01T08:40:15.828Z,12.20
2022-12-01T08:42:51.903Z,18.75
2022-12-01T08:45:24.255Z,16.70
2022-12-01T08:47:55.660Z,24.48
2022-12-01T08:50:25.036Z,21.15
2022-12-01T08:52:53.035Z,12.65
2022-12-01T08:55:22.577Z,13.25
2022-12-01T08:57:49.981Z,18.92
2022-12-01T09:00:18.214Z,21.70
2022-12-01T09:02:45.686Z,14.70
2022-12-01T09:05:12.917Z,18.10
2022-12-01T09:07:41.552Z,8.32
2022-12-01T09:13:09.930Z,12.65
2022-12-01T09:15:57.952Z,16.70
2022-12-01T09:18:25.557Z,16.60
2022-12-01T09:20:53.019Z,15.48
2022-12-01T09:23:21.800Z,9.27
2022-12-01T09:25:49.906Z,10.98
2022-12-01T09:31:11.140Z,15.68
2022-12-01T09:36:25.384Z,23.45
2022-12-01T09:38:53.145Z,30.75
2022-12-01T09:41:26.270Z,33.92
2022-12-01T09:44:05.836Z,18.90
2022-12-01T09:47:01.358Z,23.90
2022-12-01T09:50:14.305Z,20.27
2022-12-01T09:52:47.599Z,27.08
2022-12-01T09:55:17.952Z,15.95
2022-12-01T09:57:49.172Z,13.88
2022-12-01T10:00:26.254Z,19.95
2022-12-01T10:03:38.766Z,28.17
2022-12-01T10:06:43.990Z,13.52
2022-12-01T10:09:44.727Z,20.95
2022-12-01T10:12:32.475Z,20.05
2022-12-01T10:15:09.715Z,12.55
2022-12-01T10:18:01.961Z,27.27
2022-12-01T10:20:36.863Z,8.10
2022-12-01T10:23:25.648Z,20.08
2022-12-01T10:26:08.992Z,19.52
2022-12-01T10:28:39.249Z,17.90
2022-12-01T10:31:42.188Z,15.82
2022-12-01T10:37:01.906Z,18.17
2022-12-01T10:39:54.653Z,16.50
2022-12-01T10:45:26.024Z,21.85
2022-12-01T10:48:21.105Z,16.90
2022-12-01T10:53:26.925Z,17.15
2022-12-01T10:56:13.314Z,20.48
2022-12-01T10:59:04.257Z,23.38
2022-12-01T11:01:35.856Z,18.80
2022-12-01T11:04:21.423Z,19.98
2022-12-01T11:06:50.473Z,18.20
2022-12-01T11:09:26.642Z,17.98
2022-12-01T11:12:00.175Z,29.05
2022-12-01T11:14:52.266Z,23.15
2022-12-01T11:20:40.540Z,19.60
2022-12-01T11:23:29.912Z,21.98
2022-12-01T11:26:15.900Z,24.75
2022-12-01T11:28:56.246Z,11.65
2022-12-01T11:31:37.929Z,14.77
2022-12-01T11:34:06.365Z,17.83
2022-12-01T11:36:43.242Z,17.60
2022-12-01T11:39:27.854Z,19.83
2022-12-01T11:41:57.888Z,26.17
2022-12-01T11:44:50.392Z,21.13
2022-12-01T11:47:24.593Z,27.55
2022-12-01T11:49:57.670Z,25.00
2022-12-01T11:52:30.748Z,15.82
2022-12-01T11:54:58.165Z,28.00
2022-12-01T11:57:35.617Z,19.73
2022-12-01T12:00:46.295Z,25.35
2022-12-01T12:03:19.955Z,31.73
2022-12-01T12:06:38.530Z,30.73
2022-12-01T12:09:03.768Z,19.92
2022-12-01T12:12:05.034Z,18.63
2022-12-01T12:14:48.700Z,28.20
2022-12-01T12:17:22.197Z,22.17
2022-12-01T12:20:11.047Z,27.02
2022-12-01T12:22:57.495Z,17.05
2022-12-01T12:25:27.247Z,13.30
2022-12-01T12:28:25.420Z,23.30
2022-12-01T12:31:21.932Z,20.15
2022-12-01T12:34:08.081Z,36.85
2022-12-01T12:36:50.755Z,27.23
2022-12-01T12:39:19.459Z,24.25
2022-12-01T12:42:00.875Z,18.35
2022-12-01T12:44:53.992Z,18.40
2022-12-01T12:48:09.269Z,20.63
2022-12-01T12:50:58.479Z,24.30
2022-12-01T12:53:32.090Z,19.52
2022-12-01T12:56:40.747Z,22.33
2022-12-01T12:59:21.084Z,27.90
2022-12-01T13:01:54.589Z,20.35
2022-12-01T13:04:26.997Z,31.75
2022-12-01T13:07:08.784Z,16.80
2022-12-01T13:09:50.387Z,26.90
2022-12-01T13:12:35.348Z,32.97
2022-12-01T13:15:15.491Z,26.35
2022-12-01T13:17:51.764Z,26.13
2022-12-01T13:20:23.082Z,18.48
2022-12-01T13:22:52.797Z,26.25
2022-12-01T13:25:38.453Z,26.52
2022-12-01T13:28:17.548Z,25.58
2022-12-01T13:31:07.388Z,24.55
2022-12-01T13:33:38.808Z,24.20
2022-12-01T13:39:28.801Z,17.40
2022-12-01T13:42:23.743Z,21.10
2022-12-01T13:45:03.833Z,16.92
2022-12-01T13:47:54.423Z,35.90
2022-12-01T13:50:43.940Z,29.40
2022-12-01T13:53:19.885Z,28.02
2022-12-01T13:55:59.610Z,21.90
2022-12-01T13:58:32.798Z,15.20
2022-12-01T14:01:22.109Z,15.75
2022-12-01T14:07:24.334Z,17.50
2022-12-01T14:09:56.233Z,19.85
2022-12-01T14:12:33.177Z,20.35
2022-12-01T14:15:29.417Z,25.95
2022-12-01T14:18:23.053Z,27.05
2022-12-01T14:20:50.577Z,20.58
2022-12-01T14:23:33.357Z,17.73
2022-12-01T14:29:02.272Z,29.35
2022-12-01T14:31:35.482Z,39.92
2022-12-01T14:34:20.083Z,32.28
2022-12-01T14:37:09.709Z,32.38
2022-12-01T14:39:47.734Z,25.33
2022-12-01T14:42:40.291Z,27.70
2022-12-01T14:45:12.692Z,22.40
2022-12-01T14:47:44.987Z,18.52
2022-12-01T14:50:21.085Z,22.58
2022-12-01T14:53:04.763Z,11.82
2022-12-01T14:55:40.025Z,19.48
2022-12-01T14:58:20.012Z,15.52
2022-12-01T15:01:03.622Z,19.52
2022-12-01T15:03:41.038Z,21.73
2022-12-01T15:06:16.164Z,17.77
2022-12-01T15:09:04.158Z,15.50
2022-12-01T15:11:34.113Z,16.98
2022-12-01T15:14:01.167Z,12.88
2022-12-01T15:16:31.046Z,11.38
2022-12-01T15:21:31.372Z,14.13
2022-12-01T15:24:09.572Z,18.02
2022-12-01T15:26:49.812Z,18.50
2022-12-01T15:29:26.362Z,11.55
2022-12-01T15:32:01.729Z,9.95
2022-12-01T15:34:43.039Z,16.98
2022-12-01T15:37:18.935Z,14.85
2022-12-01T15:40:43.007Z,7.03
2022-12-01T15:43:15.392Z,16.15
2022-12-01T15:48:43.571Z,23.27
2022-12-01T15:51:16.858Z,14.25
2022-12-01T15:53:54.121Z,10.60
2022-12-01T15:56:31.934Z,18.17
2022-12-01T15:59:16.319Z,22.20
2022-12-01T16:01:45.044Z,22.10
2022-12-01T16:04:23.230Z,19.38
2022-12-01T16:07:01.670Z,11.68
2022-12-01T16:09:40.743Z,6.45
2022-12-01T16:12:23.987Z,14.98
2022-12-01T16:15:01.008Z,10.27
2022-12-01T16:17:43.812Z,10.95
2022-12-01T16:20:38.267Z,9.82
2022-12-01T16:23:16.191Z,11.82
2022-12-01T16:25:51.582Z,15.70
2022-12-01T16:28:24.651Z,11.38
2022-12-01T16:31:00.439Z,14.70
2022-12-01T16:33:36.243Z,9.32
2022-12-01T16:36:08.590Z,10.23
2022-12-01T16:38:37.882Z,10.10
2022-12-01T16:41:17.948Z,7.97
2022-12-01T16:44:05.480Z,7.78
2022-12-01T16:46:32.433Z,8.52
2022-12-01T16:49:05.398Z,10.57
2022-12-01T16:51:54.917Z,10.20
2022-12-01T16:54:23.917Z,10.10
2022-12-01T16:56:51.427Z,13.55
2022-12-01T16:59:20.994Z,19.25
2022-12-01T17:04:53.131Z,11.80
2022-12-01T17:07:21.177Z,19.17
2022-12-01T17:09:51.978Z,7.50
2022-12-01T17:12:26.474Z,10.13
2022-12-01T17:14:53.952Z,13.00
2022-12-01T17:17:21.340Z,20.33
2022-12-01T17:19:54.639Z,21.10
2022-12-01T17:22:23.005Z,19.90
2022-12-01T17:24:51.689Z,9.82
2022-12-01T17:27:22.195Z,12.43
2022-12-01T17:29:51.620Z,12.50
2022-12-01T17:32:21.290Z,8.20
2022-12-01T17:34:49.503Z,10.05
2022-12-01T17:37:20.862Z,9.90
2022-12-01T17:39:50.517Z,8.95
2022-12-01T17:42:20.542Z,3.85
2022-12-01T17:47:32.278Z,9.55
2022-12-01T17:49:59.650Z,9.23
2022-12-01T17:52:28.650Z,11.50
2022-12-01T17:54:56.619Z,7.85
2022-12-01T17:57:24.219Z,11.88
2022-12-01T17:59:51.553Z,14.63
2022-12-01T18:02:18.752Z,11.13
2022-12-01T18:04:46.226Z,12.95
2022-12-01T18:07:14.664Z,8.20
2022-12-01T18:09:42.281Z,14.80
2022-12-01T18:12:09.496Z,13.05
2022-12-01T18:14:37.717Z,14.55
2022-12-01T18:17:08.124Z,15.95
2022-12-01T18:19:36.098Z,7.07
2022-12-01T18:22:04.614Z,12.00
2022-12-01T18:24:32.322Z,13.23
2022-12-01T18:27:07.834Z,15.15
2022-12-01T18:29:38.014Z,9.80
2022-12-01T18:32:17.913Z,14.75
2022-12-01T18:35:31.561Z,15.73
2022-12-01T18:38:29.186Z,11.38
2022-12-01T18:41:02.342Z,14.13
2022-12-01T18:43:31.009Z,8.68
2022-12-01T18:45:59.505Z,10.40
2022-12-01T18:48:27.247Z,8.77
2022-12-01T18:50:59.638Z,13.10
2022-12-01T18:53:26.800Z,11.88
2022-12-01T18:55:54.501Z,11.43
2022-12-01T18:58:24.037Z,5.55
2022-12-01T19:00:51.409Z,7.13
2022-12-01T19:03:18.633Z,7.75
2022-12-01T19:05:47.016Z,5.97
2022-12-01T19:08:14.170Z,4.25
2022-12-01T19:10:41.666Z,10.60
2022-12-01T19:13:11.397Z,11.35
2022-12-01T19:15:38.969Z,13.55
2022-12-01T19:18:06.941Z,7.07
2022-12-01T19:20:39.004Z,11.45
2022-12-01T19:23:06.849Z,11.70
2022-12-01T19:25:36.915Z,15.93
2022-12-01T19:30:37.208Z,6.07
2022-12-01T19:33:04.580Z,10.95
2022-12-01T19:35:36.347Z,7.93
2022-12-01T19:38:03.473Z,10.43
2022-12-01T19:40:45.078Z,13.02
2022-12-01T19:43:14.514Z,7.43
2022-12-01T19:45:44.548Z,18.20
2022-12-01T19:48:13.549Z,10.05
2022-12-01T19:50:41.078Z,9.70
2022-12-01T19:53:08.266Z,10.05
2022-12-01T19:55:41.787Z,7.30
2022-12-01T19:58:10.204Z,8.43
2022-12-01T20:00:37.797Z,10.98
2022-12-01T20:03:04.826Z,7.00
2022-12-01T20:05:33.921Z,7.25
2022-12-01T20:08:02.288Z,11.10
2022-12-01T20:10:29.807Z,10.75
2022-12-01T20:12:59.806Z,13.95
2022-12-01T20:15:27.289Z,11.73
2022-12-01T20:17:55.461Z,9.10
2022-12-01T20:20:42.811Z,7.53
2022-12-01T20:23:09.980Z,12.95
2022-12-01T20:25:37.518Z,7.72
2022-12-01T20:28:04.733Z,10.52
2022-12-01T20:30:32.137Z,6.03
2022-12-01T20:33:02.059Z,8.93
2022-12-01T20:39:19.639Z,6.10
2022-12-01T20:44:29.430Z,11.07
2022-12-01T20:47:29.194Z,11.32
2022-12-01T20:49:58.451Z,6.30
2022-12-01T20:52:26.834Z,7.05
2022-12-01T20:54:53.914Z,8.48
2022-12-01T20:57:21.428Z,9.38
2022-12-01T20:59:48.796Z,14.48
2022-12-01T21:02:16.268Z,9.40
2022-12-01T21:04:43.318Z,12.43
2022-12-01T21:07:10.804Z,9.95
2022-12-01T21:09:37.912Z,9.13
2022-12-01T21:16:00.082Z,19.60
2022-12-01T21:18:48.822Z,13.35
2022-12-01T21:21:24.476Z,15.70
2022-12-01T21:24:20.148Z,11.98
2022-12-01T21:26:58.939Z,10.88
2022-12-01T21:29:33.632Z,7.82
2022-12-01T21:32:03.174Z,10.73
2022-12-01T21:34:39.757Z,14.02
2022-12-01T21:37:15.154Z,10.73
2022-12-01T21:39:42.725Z,12.98
2022-12-01T21:42:30.693Z,5.85
2022-12-01T21:44:58.425Z,12.13
2022-12-01T21:47:30.768Z,11.98
2022-12-01T21:50:02.486Z,10.45
2022-12-01T21:52:55.548Z,8.88
2022-12-01T21:57:53.821Z,8.18
2022-12-01T22:00:27.142Z,7.97
2022-12-01T22:03:00.391Z,7.20
2022-12-01T22:05:40.589Z,9.10
2022-12-01T22:08:37.683Z,4.82
2022-12-01T22:11:22.592Z,8.73
2022-12-01T22:14:11.027Z,8.27
2022-12-01T22:16:53.430Z,10.43
2022-12-01T22:19:27.863Z,7.57
2022-12-01T22:22:01.041Z,7.50
2022-12-01T22:24:34.456Z,7.00
2022-12-01T22:27:30.532Z,11.18
2022-12-01T22:30:08.299Z,7.80
2022-12-01T22:33:03.737Z,8.75
2022-12-01T22:35:49.262Z,10.60
2022-12-01T22:38:38.892Z,15.02
2022-12-01T22:41:14.946Z,11.88
2022-12-01T22:43:47.511Z,9.93
2022-12-01T22:46:29.670Z,12.85
2022-12-01T22:52:02.801Z,9.25
2022-12-01T22:54:34.592Z,10.68
2022-12-01T22:57:10.029Z,8.13
2022-12-01T22:59:44.804Z,10.85
2022-12-01T23:02:14.342Z,10.63
2022-12-01T23:07:33.000Z,7.25
2022-12-01T23:10:18.813Z,7.05
2022-12-01T23:12:48.404Z,14.57
2022-12-01T23:15:32.937Z,8.70
2022-12-01T23:18:15.291Z,8.75
2022-12-01T23:20:54.276Z,10.60
2022-12-01T23:23:26.528Z,11.63
2022-12-01T23:25:56.715Z,7.93
2022-12-01T23:28:24.556Z,9.02
2022-12-01T23:30:55.108Z,13.85
2022-12-01T23:33:25.400Z,14.82
2022-12-01T23:35:55.114Z,13.38
2022-12-01T23:38:26.320Z,13.90
2022-12-01T23:40:57.413Z,12.68
2022-12-01T23:43:33.260Z,10.77
2022-12-01T23:46:17.890Z,10.18
2022-12-01T23:48:49.136Z,9.25
2022-12-01T23:51:23.056Z,10.15
2022-12-01T23:53:55.644Z,7.03
2022-12-01T23:56:28.106Z,8.63
2022-12-01T23:58:57.441Z,7.72
